x

North Huron - 32nm Northeast Of Alpena, Mi (45003) Wave Buoy

7:50am - Fri 25th Jul 2014 All times are CDT. -5 hours from GMT.

  • Sig Wave height 0.3ft
  • Average Period 3s
  • Wind
    4mph
  • Sea Temp 59°f
  • Air Temp 59°f
  • Sea Pressure 1016.7mb
  • North Huron - 32nm Northeast Of Alpena, Mi
  • North Huron - 32nm Northeast Of Alpena, Mi

More Historic Weather Station data

Upgrade to MSW Pro to gain access to the past 30 days of data for over 8000 Wavebouys and Weather Stations around the globe.

Join Pro

Comparision Forecast

View Surf forecast
   
Fri 07/25 7:50am 0.3ft  -  3s 4
mph
1016.7mb 59f 59f
6:50am 0.3ft  -  3s 4 7 mph 1016.3mb 59f 59f
5:50am 0.7ft  -  3s 7
mph
1016.6mb 59f 59f
4:50am 0.7ft  -  3s 4
mph
1016.5mb 59f 59f
3:50am 1ft 4s 3s 7
mph
1016.6mb 59f 59f
2:50am 1ft 4s 3s 4
mph
1016.5mb 59f 59f
1:50am 1ft 4s 3s 4
mph
1016.8mb 59f 60f
12:50am 1ft 4s 3s 2
mph
1016.9mb 59f 60f
Thu 07/24 11:50pm 0.7ft  -  3s 2
mph
1017.1mb 59f 60f
10:50pm 0.7ft  -  3s 4
mph
1017.4mb 59f 60f
9:50pm 0.7ft  -  3s 7
mph
1017.8mb 59f 60f
8:50pm 0.7ft  -  3s 7 9 mph 1017.5mb 59f 60f
7:50pm 1ft 4s 3s 9 11 mph 1017.4mb 59f 62f
6:50pm 1ft 4s 3s 9
mph
1017.4mb 59f 62f
5:50pm 1ft 4s 3s 9 11 mph 1017.3mb 59f 62f
4:50pm 1.3ft 4s 3s 9 11 mph 1017.2mb 59f 62f
3:50pm 1.3ft 4s 3s 9 11 mph 1018mb 59f 60f
2:50pm 1.3ft 4s 3s 11 13 mph 1018.8mb 59f 60f
1:50pm 1.6ft 4s 3s 13
mph
1019.2mb 59f 59f
12:50pm 1.6ft 4s 3s 13 16 mph 1019.6mb 59f 58f
11:50am 1.6ft 4s 3s 13 16 mph 1020.1mb 59f 58f
10:50am 1.6ft 4s 3s 13 16 mph 1020.4mb 59f 58f
9:50am 1.3ft 4s 3s 13 16 mph 1020.3mb 58f 58f
8:50am 1.3ft 4s 3s 11 13 mph 1020.5mb 58f 58f
7:50am 1.6ft 4s 3s 9 11 mph 1020.5mb 58f 58f
6:50am 1.6ft 4s 4s 9
mph
1020.3mb 58f 58f
5:50am 2ft 5s 4s 9 11 mph 1020.1mb 58f 58f
4:50am 2ft 5s 4s 11 13 mph 1019.9mb 58f 58f
3:50am 2.5ft 5s 4s 11 13 mph 1019.7mb 58f 58f
2:50am 2.5ft 5s 4s 11 13 mph 1019.7mb 58f 59f
1:50am 1.6ft 5s 4s 9 11 mph 1019.7mb 58f 59f
12:50am 2ft 5s 4s 9 11 mph 1019.9mb 58f 59f
Wed 07/23 11:50pm 1.6ft 4s 3s 16 20 mph 1019.6mb 58f 60f
10:50pm 1.3ft 4s 3s 16 18 mph 1019.5mb 59f 60f
9:50pm 1.3ft 4s 3s 13 16 mph 1019.7mb 59f 61f
8:50pm 1.6ft 4s 3s 7 9 mph 1019.6mb 59f 60f
7:50pm 2ft 4s 3s 9 11 mph 1019.2mb 59f 61f
6:50pm 2ft 4s 3s 13 16 mph 1018.9mb 59f 61f
5:50pm 2ft 4s 3s 16 18 mph 1018.8mb 59f 61f
4:50pm 2ft 4s 3s 16 18 mph 1018.7mb 59f 61f
3:50pm 1.6ft 4s 3s 13 16 mph 1018.9mb 58f 60f
2:50pm 2ft 4s 3s 13 16 mph 1019.5mb 58f 58f
1:50pm 2.5ft 5s 3s 13 16 mph 1019.5mb 58f 59f
12:50pm 2.5ft 5s 3s 16 18 mph 1019.3mb 57f 59f
11:50am 2.5ft 5s 4s 13 20 mph 1018.9mb 57f 59f
10:50am 2.5ft 5s 4s 13 16 mph 1018.8mb 57f 59f
9:50am 2.5ft 5s 4s 16 18 mph 1018.6mb 57f 59f
8:50am 3ft 5s 4s 13 16 mph 1018.5mb 57f 59f
7:50am 3ft 5s 4s 11 13 mph 1018.4mb 58f 59f
6:50am 3.5ft 6s 4s 11 13 mph 1018mb 58f 60f
5:50am 3.5ft 5s 4s 9 11 mph 1017.1mb 58f 59f
4:50am 3.5ft 5s 4s 11 13 mph 1015.6mb 58f 60f
3:50am 4ft 6s 4s 16 18 mph 1013.9mb 58f 59f
2:50am 3.5ft 5s 4s 22 27 mph 1013.3mb 58f 59f
1:50am 3.5ft 5s 4s 20 22 mph 1013.5mb 58f 59f
12:50am 2.5ft 5s 4s 20 22 mph 1013.2mb 58f 60f
Tue 07/22 11:50pm 2.5ft 4s 4s 16 18 mph 1012.8mb 58f 60f
10:50pm 2ft 5s 4s 11
mph
1012.5mb 58f 60f
9:50pm 2.5ft 5s 4s 9 11 mph 1012.4mb 57f 60f
8:50pm 2.5ft 6s 5s 13
mph
1011.6mb 57f 62f
7:50pm 2.5ft 5s 4s 9 13 mph 1010.6mb 58f 64f
6:50pm 3.5ft 5s 4s 11
mph
1010.1mb 58f 64f
5:50pm 4ft 5s 4s 16 18 mph 1010.1mb 58f 65f
4:50pm 4ft 5s 4s 18 20 mph 1009.8mb 58f 66f
3:50pm 3.5ft 5s 4s 22 27 mph 1009.1mb 59f 65f
2:50pm 2.5ft 4s 4s 20 25 mph 1011mb 59f 64f
1:50pm 2.5ft 4s 3s 20 22 mph 1011.9mb 59f 64f
12:50pm 2ft 4s 3s 20 22 mph 1011.8mb 60f 64f
11:50am 1.6ft 3s 3s 20 22 mph 1013mb 60f 63f
10:50am 1.3ft 3s 3s 13 16 mph 1014.9mb 60f 63f
9:50am 1ft 3s 3s 11 16 mph 1015.8mb 59f 63f
8:50am 1ft 3s 3s 11 13 mph 1016.5mb 59f 63f
7:50am 0.7ft  -  3s 11 13 mph 1016.9mb 59f 63f
6:50am 0.7ft  -  3s 13
mph
1017.3mb 59f 62f
5:50am 0.7ft  -  3s 9 11 mph 1017.4mb 59f 62f
4:50am 1ft 3s 3s 9 11 mph 1017.2mb 59f 63f
3:50am 1ft 4s 3s 9
mph
1017.4mb 59f 62f
2:50am 1ft 3s 3s 9
mph
1017.3mb 59f 62f
1:50am 1ft 3s 3s 9 11 mph 1017.6mb 59f 62f
12:50am 1.3ft 3s 3s 11
mph
1017.8mb 59f 63f
Mon 07/21 11:50pm 1.3ft 3s 3s 11 13 mph 1018mb 59f 63f
10:50pm 1ft 3s 3s 11 13 mph 1018mb 60f 64f
9:50pm 1ft 3s 3s 11 13 mph 1018.2mb 60f 63f
8:50pm 1ft 3s 3s 11 13 mph 1018.1mb 60f 63f
7:50pm 1ft 3s 3s 11 13 mph 1017.7mb 60f 63f
6:50pm 1ft 3s 3s 11 13 mph 1017.9mb 60f 64f
5:50pm 1ft 3s 3s 13
mph
1017.9mb 60f 64f
4:50pm 1ft 3s 3s 13
mph
1018.1mb 60f 64f
3:50pm 1ft 3s 3s 11 13 mph 1018.5mb 60f 63f
2:50pm 0.7ft  -  3s 11 13 mph 1018.9mb 60f 63f
1:50pm 0.7ft  -  3s 9 11 mph 1019.1mb 60f 63f